Time;durP1;ratioP1;P1;durP2;ratioP2;P2;SDS_P1;SDS_P2;PMS_P1;PMS_P2;Temp;Humidity;BMP_temperature;BMP_pressure;BME280_temperature;BME280_humidity;BME280_pressure;Samples;Min_cycle;Max_cycle;Signal;HPM_P1;HPM_P2
2022/01/22 00:00:18;;;;;;;6.05;3.47;;;;;;;0.44;63.81;99394.98;1663564;86;21542;-70
2022/01/22 00:02:46;;;;;;;7.00;4.35;;;;;;;0.37;64.64;99404.76;1652614;85;21201;-70
2022/01/22 00:05:13;;;;;;;7.07;3.83;;;;;;;0.35;64.96;99393.66;1552755;84;10000210;-70
2022/01/22 00:07:39;;;;;;;8.20;4.40;;;;;;;0.30;65.34;99402.72;1666152;84;21477;-69
2022/01/22 00:10:11;;;;;;;5.47;3.50;;;;;;;0.24;65.63;99396.50;1669078;85;21082;-69
2022/01/22 00:15:07;;;;;;;6.75;4.25;;;;;;;0.15;66.24;99385.98;1650612;84;21036;-70
2022/01/22 00:17:33;;;;;;;6.33;4.42;;;;;;;0.09;66.51;99393.41;1667344;85;21547;-69
2022/01/22 00:20:00;;;;;;;7.62;4.40;;;;;;;0.07;66.83;99398.89;1665762;84;21147;-70
2022/01/22 00:22:30;;;;;;;6.67;4.17;;;;;;;0.06;67.41;99405.14;1665278;84;21134;-69
2022/01/22 00:24:58;;;;;;;8.85;4.45;;;;;;;0.02;68.11;99418.41;1671328;84;21067;-70
2022/01/22 00:27:24;;;;;;;8.58;4.55;;;;;;;-0.02;69.04;99400.19;1674971;84;21086;-70
2022/01/22 00:29:51;;;;;;;7.37;4.45;;;;;;;-0.06;69.72;99409.52;1666869;85;22015;-71
2022/01/22 00:32:17;;;;;;;8.03;4.85;;;;;;;-0.09;70.20;99406.01;1674034;85;21046;-70
2022/01/22 00:34:44;;;;;;;7.55;4.37;;;;;;;-0.10;70.69;99418.33;1676686;84;21585;-70
2022/01/22 00:37:12;;;;;;;10.78;5.20;;;;;;;-0.14;71.02;99410.58;1667209;84;21142;-70
2022/01/22 00:39:38;;;;;;;6.95;4.30;;;;;;;-0.11;71.19;99411.45;1673433;84;21650;-69
2022/01/22 00:42:11;;;;;;;7.15;4.65;;;;;;;-0.14;71.40;99406.63;1666986;85;21205;-69
2022/01/22 00:44:34;;;;;;;8.23;4.58;;;;;;;-0.18;71.81;99408.60;1689316;84;21043;-69
2022/01/22 00:47:02;;;;;;;8.40;4.65;;;;;;;-0.19;71.92;99405.18;1674713;84;21106;-70
2022/01/22 00:49:32;;;;;;;9.70;4.60;;;;;;;-0.20;72.02;99404.86;1676338;84;21118;-70
2022/01/22 00:51:59;;;;;;;10.08;4.50;;;;;;;-0.21;72.28;99406.41;1665361;85;21637;-70
2022/01/22 00:54:25;;;;;;;9.33;4.78;;;;;;;-0.23;72.35;99390.89;1668330;84;21115;-70
2022/01/22 00:56:52;;;;;;;7.62;4.92;;;;;;;-0.24;72.46;99401.87;1667824;85;21055;-70
2022/01/22 00:59:19;;;;;;;8.55;4.65;;;;;;;-0.25;72.54;99398.96;1667662;85;21091;-69
2022/01/22 01:01:45;;;;;;;8.08;4.17;;;;;;;-0.21;72.55;99405.09;1670414;84;21060;-69
2022/01/22 01:04:12;;;;;;;9.03;4.60;;;;;;;-0.19;72.57;99401.76;1671496;83;22186;-70
2022/01/22 01:06:38;;;;;;;7.17;4.20;;;;;;;-0.17;72.59;99395.77;1668367;85;21478;-70
2022/01/22 01:09:08;;;;;;;8.38;4.50;;;;;;;-0.19;72.64;99387.33;1667293;85;21563;-69
2022/01/22 01:11:39;;;;;;;8.85;4.97;;;;;;;-0.15;72.72;99391.91;1652860;85;21087;-69
2022/01/22 01:14:06;;;;;;;7.22;4.35;;;;;;;-0.13;72.70;99390.38;1654709;86;21062;-69
2022/01/22 01:16:55;;;;;;;9.18;4.40;;;;;;;-0.11;72.66;99406.72;1654529;86;21528;-69
2022/01/22 01:33:15;;;;;;;8.48;3.85;;;;;;;-0.18;72.79;99393.66;1657199;86;21514;-69
2022/01/22 01:35:38;;;;;;;6.62;3.98;;;;;;;-0.17;72.68;99405.75;1656379;86;21463;-69
2022/01/22 01:38:04;;;;;;;7.47;3.70;;;;;;;-0.15;72.56;99407.66;1657093;86;21032;-69
2022/01/22 01:40:33;;;;;;;8.20;4.20;;;;;;;-0.12;72.41;99407.23;1656703;86;21066;-69
2022/01/22 01:45:44;;;;;;;8.13;3.83;;;;;;;-0.09;71.87;99408.12;1656776;86;21012;-70
2022/01/22 01:48:17;;;;;;;7.62;3.80;;;;;;;-0.09;71.67;99404.70;1656905;86;21463;-70
2022/01/22 01:50:41;;;;;;;9.13;4.60;;;;;;;-0.09;71.44;99414.68;1656571;86;21027;-69
2022/01/22 01:53:19;;;;;;;7.30;4.10;;;;;;;-0.09;71.24;99412.56;1657238;86;21122;-69
2022/01/22 01:57:23;;;;;;;7.08;3.80;;;;;;;-0.10;71.08;99421.44;1656872;86;21075;-69
2022/01/22 01:58:19;;;;;;;6.90;4.03;;;;;;;-0.11;70.99;99417.22;1653635;86;21140;-69
2022/01/22 02:00:47;;;;;;;7.42;3.95;;;;;;;-0.08;70.89;99412.86;1656639;86;21085;-68
2022/01/22 02:03:14;;;;;;;6.87;3.70;;;;;;;-0.07;70.79;99420.50;1656967;86;21756;-69
2022/01/22 02:05:42;;;;;;;8.78;4.00;;;;;;;-0.10;75.87;99414.87;1656669;86;21103;-69
2022/01/22 02:08:09;;;;;;;6.65;3.80;;;;;;;-0.11;71.56;99426.41;1657047;86;20995;-69
2022/01/22 02:10:44;;;;;;;6.95;3.90;;;;;;;-0.17;70.99;99424.63;1654512;86;21165;-70
2022/01/22 02:24:21;;;;;;;5.92;3.55;;;;;;;-0.21;70.48;99423.46;1681912;85;21114;-69
2022/01/22 02:26:49;;;;;;;6.53;3.92;;;;;;;-0.22;70.45;99423.18;1684372;85;21051;-68
2022/01/22 02:29:19;;;;;;;7.33;3.70;;;;;;;-0.26;70.47;99431.48;1684310;85;21114;-69
2022/01/22 02:32:22;;;;;;;8.13;3.75;;;;;;;-0.30;70.47;99421.09;1683713;85;21062;-69
2022/01/22 02:34:37;;;;;;;7.45;3.70;;;;;;;-0.34;70.53;99425.67;1684351;85;20976;-70
2022/01/22 02:39:34;;;;;;;7.45;3.12;;;;;;;-0.40;70.60;99442.27;1686839;85;21131;-69
2022/01/22 02:41:52;;;;;;;6.95;3.25;;;;;;;-0.42;70.65;99449.05;1685924;85;20986;-70
2022/01/22 02:44:32;;;;;;;5.45;3.20;;;;;;;-0.42;70.65;99443.80;1686821;85;21125;-69
2022/01/22 02:46:50;;;;;;;7.45;3.15;;;;;;;-0.42;70.67;99452.19;1659234;85;21094;-69
2022/01/22 02:49:18;;;;;;;6.78;3.20;;;;;;;-0.44;70.74;99452.37;1686988;85;21681;-70
2022/01/22 02:51:45;;;;;;;6.60;3.15;;;;;;;-0.44;70.77;99449.75;1686597;85;21007;-69
2022/01/22 02:54:11;;;;;;;6.25;3.20;;;;;;;-0.43;70.79;99453.18;1686961;85;20983;-69
2022/01/22 02:56:38;;;;;;;5.97;3.17;;;;;;;-0.44;70.84;99458.14;1686589;85;21034;-70
2022/01/22 02:59:05;;;;;;;7.15;2.98;;;;;;;-0.45;70.87;99457.85;1686804;85;21019;-69
2022/01/22 03:01:32;;;;;;;4.90;2.70;;;;;;;-0.47;70.95;99453.60;1686604;85;21908;-69
2022/01/22 03:03:59;;;;;;;7.67;3.05;;;;;;;-0.49;71.02;99450.41;1686622;84;21038;-68
2022/01/22 03:06:25;;;;;;;5.08;2.70;;;;;;;-0.47;71.06;99451.48;1686680;85;21002;-69
2022/01/22 03:08:51;;;;;;;4.97;2.87;;;;;;;-0.46;71.08;99457.05;1686703;85;21007;-69
2022/01/22 03:11:25;;;;;;;11.38;2.92;;;;;;;-0.45;71.05;99453.92;1686709;85;21011;-69
2022/01/22 03:16:51;;;;;;;6.90;3.08;;;;;;;-0.41;71.04;99451.16;1686597;85;21038;-69
2022/01/22 03:19:10;;;;;;;;;;;;;;;-0.37;70.99;99451.83;1688765;85;21038;-69
2022/01/22 03:21:57;;;;;;;5.95;3.20;;;;;;;-0.31;70.87;99443.63;1685962;85;20254;-69
2022/01/22 03:29:40;;;;;;;6.35;3.17;;;;;;;-0.19;70.52;99444.55;1686692;85;21011;-70
2022/01/22 03:32:10;;;;;;;6.67;2.80;;;;;;;-0.18;70.36;99448.77;1686733;85;21019;-68
2022/01/22 03:34:43;;;;;;;6.47;2.75;;;;;;;-0.14;70.28;99453.08;1686720;85;21003;-68
2022/01/22 03:37:05;;;;;;;4.72;2.58;;;;;;;-0.12;70.14;99449.74;1686639;85;20962;-68
2022/01/22 03:39:33;;;;;;;5.30;2.70;;;;;;;-0.09;70.04;99462.44;1686499;85;21944;-69
2022/01/22 03:41:59;;;;;;;9.18;3.08;;;;;;;-0.11;69.87;99461.84;1686514;85;21065;-69
2022/01/22 03:44:26;;;;;;;5.42;2.70;;;;;;;-0.08;69.77;99463.52;1658985;85;21015;-69
2022/01/22 03:46:54;;;;;;;5.12;2.98;;;;;;;-0.05;69.72;99466.23;1686229;85;21002;-69
2022/01/22 03:49:21;;;;;;;5.85;2.72;;;;;;;-0.03;69.65;99470.77;1686962;85;21027;-69
2022/01/22 03:51:47;;;;;;;5.15;2.58;;;;;;;-0.06;69.48;99464.64;1686761;85;21451;-69
2022/01/22 03:54:14;;;;;;;5.65;2.87;;;;;;;-0.09;69.32;99471.62;1686938;85;21082;-69
2022/01/22 03:56:44;;;;;;;7.25;2.87;;;;;;;-0.07;69.31;99470.37;1686427;85;20999;-69
2022/01/22 03:59:16;;;;;;;7.40;3.02;;;;;;;-0.06;69.31;99473.31;1686087;85;21034;-69
2022/01/22 04:02:19;;;;;;;6.80;2.62;;;;;;;-0.04;69.22;99469.95;1683323;85;21023;-69
2022/01/22 04:04:38;;;;;;;7.30;3.05;;;;;;;-0.02;69.16;99468.44;1684718;84;21172;-69
2022/01/22 04:09:40;;;;;;;5.37;2.62;;;;;;;0.02;69.02;99474.06;1686936;85;21192;-70
2022/01/22 04:12:04;;;;;;;5.40;2.70;;;;;;;0.00;68.90;99479.53;1685954;85;21046;-68
2022/01/22 04:14:34;;;;;;;6.03;2.90;;;;;;;-0.01;68.80;99486.58;1686613;85;21146;-69
2022/01/22 04:17:17;;;;;;;4.30;2.22;;;;;;;0.01;68.76;99475.88;1686856;85;21841;-69
2022/01/22 04:25:03;;;;;;;5.87;2.83;;;;;;;-0.02;68.48;99496.80;1687311;85;21031;-69
2022/01/22 04:27:31;;;;;;;5.85;2.83;;;;;;;-0.05;68.52;99493.80;1686765;85;21043;-70
2022/01/22 04:29:59;;;;;;;6.67;3.08;;;;;;;-0.05;68.50;99493.80;1686959;85;21995;-70
2022/01/22 04:32:30;;;;;;;6.97;3.25;;;;;;;-0.06;68.48;99490.89;1686560;85;21471;-69
2022/01/22 04:34:57;;;;;;;7.08;3.02;;;;;;;-0.07;68.32;99495.82;1686966;85;21116;-69
2022/01/22 04:37:24;;;;;;;6.55;2.72;;;;;;;-0.05;68.28;99493.28;1686631;85;20959;-70
2022/01/22 04:39:51;;;;;;;6.22;2.92;;;;;;;-0.07;68.21;99495.82;1686799;85;21009;-69
2022/01/22 04:42:18;;;;;;;4.97;2.33;;;;;;;-0.08;68.19;99500.78;1686805;85;21130;-69
2022/01/22 04:45:16;;;;;;;4.20;2.25;;;;;;;-0.10;68.17;99493.62;1686781;85;21545;-69
2022/01/22 04:47:25;;;;;;;6.10;3.02;;;;;;;-0.09;68.10;99483.44;1680848;85;21026;-69
2022/01/22 04:52:38;;;;;;;7.65;3.45;;;;;;;-0.10;67.99;99485.27;1686916;85;21019;-69
2022/01/22 04:54:59;;;;;;;5.65;2.65;;;;;;;-0.10;67.92;99493.62;1685283;85;21615;-69
2022/01/22 04:57:28;;;;;;;4.47;2.40;;;;;;;-0.13;67.86;99500.13;1686586;85;20995;-70
2022/01/22 04:59:54;;;;;;;6.05;2.45;;;;;;;-0.15;67.76;99498.72;1686817;85;21122;-69
2022/01/22 05:02:21;;;;;;;5.72;2.72;;;;;;;-0.16;67.75;99504.48;1686764;85;21490;-69
2022/01/22 05:04:53;;;;;;;8.35;3.00;;;;;;;-0.16;67.72;99507.63;1664832;85;21089;-69
2022/01/22 05:07:39;;;;;;;5.28;2.70;;;;;;;-0.19;67.70;99513.29;1682587;85;21427;-69
2022/01/22 05:10:08;;;;;;;5.92;2.67;;;;;;;-0.18;67.72;99505.70;1685142;85;21010;-68
2022/01/22 05:12:36;;;;;;;6.80;2.83;;;;;;;-0.19;67.72;99510.16;1686799;85;21086;-69
2022/01/22 05:15:05;;;;;;;5.53;2.70;;;;;;;-0.23;67.68;99508.98;1685770;85;21006;-68
2022/01/22 05:17:35;;;;;;;5.62;2.83;;;;;;;-0.24;67.70;99519.16;1686703;85;21150;-69
2022/01/22 05:20:16;;;;;;;6.87;2.70;;;;;;;-0.26;67.68;99517.27;1685786;83;21146;-69
2022/01/22 05:25:15;;;;;;;5.33;2.50;;;;;;;-0.30;67.61;99525.24;1669020;86;21523;-70
2022/01/22 05:39:00;;;;;;;5.87;2.30;;;;;;;-0.37;67.50;99537.59;1669452;86;21039;-70
2022/01/22 05:41:27;;;;;;;9.23;2.65;;;;;;;-0.35;67.46;99536.89;1668673;85;20981;-70
2022/01/22 05:43:53;;;;;;;4.92;2.60;;;;;;;-0.36;67.41;99541.34;1669115;86;21070;-70
2022/01/22 05:46:19;;;;;;;6.97;2.90;;;;;;;-0.34;67.41;99544.55;1669204;86;21571;-70
2022/01/22 05:48:46;;;;;;;6.00;2.75;;;;;;;-0.33;67.36;99550.11;1669299;86;20961;-70
2022/01/22 05:51:15;;;;;;;5.22;2.62;;;;;;;-0.32;67.32;99557.47;1643878;86;21028;-70
2022/01/22 05:54:11;;;;;;;6.72;2.80;;;;;;;-0.31;67.28;99559.06;1669382;86;21036;-68
2022/01/22 06:01:35;;;;;;;6.80;2.70;;;;;;;-0.31;67.16;99574.30;1668454;85;21084;-70
2022/01/22 06:04:04;;;;;;;6.33;2.50;;;;;;;-0.32;67.00;99574.01;1645084;86;21111;-70
2022/01/22 06:06:30;;;;;;;4.87;2.17;;;;;;;-0.30;66.91;99566.72;1669079;85;21052;-68
2022/01/22 06:09:01;;;;;;;7.05;2.40;;;;;;;-0.29;66.79;99570.17;1668958;85;21511;-69
2022/01/22 06:11:29;;;;;;;6.53;2.95;;;;;;;-0.29;66.72;99568.34;1668654;86;22246;-69
2022/01/22 06:13:56;;;;;;;6.83;2.77;;;;;;;-0.26;66.62;99578.42;1669153;85;21021;-69
2022/01/22 06:16:30;;;;;;;8.45;3.50;;;;;;;-0.24;66.50;99572.95;1667924;86;21025;-68
2022/01/22 06:19:17;;;;;;;7.65;3.25;;;;;;;-0.26;66.37;99577.11;1669034;85;21009;-69
2022/01/22 06:21:43;;;;;;;6.97;3.30;;;;;;;-0.26;66.36;99575.80;1668901;85;20960;-69
2022/01/22 06:24:12;;;;;;;6.53;2.60;;;;;;;-0.27;66.22;99572.06;1669379;86;21634;-70
2022/01/22 06:26:39;;;;;;;6.60;2.90;;;;;;;-0.25;66.18;99572.66;1668816;86;21110;-70
2022/01/22 06:29:07;;;;;;;7.05;3.20;;;;;;;-0.26;66.09;99575.80;1669078;86;21119;-69
2022/01/22 06:31:34;;;;;;;5.20;2.70;;;;;;;-0.28;66.05;99575.19;1668986;86;21464;-70
2022/01/22 06:34:00;;;;;;;4.83;2.47;;;;;;;-0.25;66.02;99578.71;1669490;86;21065;-70
2022/01/22 06:36:27;;;;;;;6.78;2.58;;;;;;;-0.23;65.87;99578.52;1668947;86;21123;-70
2022/01/22 06:39:09;;;;;;;7.40;2.50;;;;;;;-0.19;65.79;99583.64;1669353;86;21087;-69
2022/01/22 06:41:47;;;;;;;7.15;3.00;;;;;;;-0.16;65.68;99588.98;1668904;86;21000;-70
2022/01/22 06:44:34;;;;;;;4.42;2.15;;;;;;;-0.15;65.48;99594.52;1669094;86;21124;-70
2022/01/22 06:47:02;;;;;;;7.90;2.40;;;;;;;-0.15;65.29;99595.31;1665344;86;21562;-69
2022/01/22 06:49:42;;;;;;;4.58;2.12;;;;;;;-0.09;65.24;99595.79;1653087;85;21524;-68
2022/01/22 06:52:11;;;;;;;4.83;2.02;;;;;;;-0.06;64.96;99597.20;1653615;86;21024;-69
2022/01/22 06:54:38;;;;;;;6.58;2.20;;;;;;;-0.05;64.76;99598.80;1669275;86;21089;-70
2022/01/22 06:57:05;;;;;;;7.53;2.40;;;;;;;-0.01;64.64;99601.29;1669065;86;20975;-69
2022/01/22 06:59:31;;;;;;;5.55;2.22;;;;;;;0.02;64.49;99598.24;1669374;86;21067;-69
2022/01/22 07:01:58;;;;;;;6.78;2.62;;;;;;;0.08;64.40;99607.91;1668092;86;22217;-69
2022/01/22 07:04:26;;;;;;;4.55;2.08;;;;;;;0.13;64.31;99600.21;1668241;85;21119;-69
2022/01/22 07:06:54;;;;;;;6.87;2.50;;;;;;;0.21;64.17;99607.81;1626846;87;21032;-70
2022/01/22 07:09:22;;;;;;;5.00;2.30;;;;;;;0.28;63.97;99609.09;1642320;87;21056;-71
2022/01/22 07:11:50;;;;;;;7.00;2.60;;;;;;;0.35;63.95;99601.95;1641466;87;21603;-69
2022/01/22 07:14:17;;;;;;;6.90;2.30;;;;;;;0.42;63.73;99600.59;1641906;87;22033;-70
2022/01/22 07:16:45;;;;;;;6.15;2.20;;;;;;;0.48;63.39;99606.31;1641766;87;20976;-69
2022/01/22 07:19:18;;;;;;;5.72;2.15;;;;;;;0.52;63.20;99601.43;1632034;86;21083;-70
2022/01/22 07:21:58;;;;;;;5.42;2.10;;;;;;;0.55;62.87;99604.95;1668872;86;21036;-70
2022/01/22 07:24:23;;;;;;;5.83;2.45;;;;;;;0.51;62.41;99614.28;1668870;85;21496;-69
2022/01/22 07:26:51;;;;;;;3.90;1.90;;;;;;;0.50;62.55;99613.48;1665540;86;22212;-69
2022/01/22 07:29:20;;;;;;;5.20;2.00;;;;;;;0.53;62.38;99617.00;1669145;85;21111;-70
2022/01/22 07:31:47;;;;;;;5.50;2.15;;;;;;;0.56;62.39;99619.20;1667674;86;21084;-69
2022/01/22 07:34:14;;;;;;;6.12;2.30;;;;;;;0.61;62.51;99618.03;1668891;86;20981;-69
2022/01/22 07:36:40;;;;;;;5.53;2.15;;;;;;;0.68;62.10;99625.34;1669266;86;21143;-70
2022/01/22 07:39:07;;;;;;;4.75;2.02;;;;;;;0.66;61.61;99616.09;1669492;86;21970;-69
2022/01/22 07:41:36;;;;;;;3.95;2.02;;;;;;;0.67;61.68;99618.48;1668647;86;21100;-69
2022/01/22 07:44:13;;;;;;;6.55;2.30;;;;;;;0.72;61.73;99626.23;1644286;86;21745;-70
2022/01/22 07:46:41;;;;;;;4.55;2.10;;;;;;;0.70;61.35;99614.63;1668460;86;21471;-69
2022/01/22 07:49:10;;;;;;;5.20;2.10;;;;;;;0.70;61.39;99625.14;1668647;86;21060;-69
2022/01/22 07:51:38;;;;;;;6.20;2.70;;;;;;;0.72;61.53;99627.03;1667660;86;21021;-69
2022/01/22 07:54:04;;;;;;;6.55;2.62;;;;;;;0.77;61.37;99623.77;1669585;86;20969;-70
2022/01/22 07:56:32;;;;;;;6.05;2.30;;;;;;;0.75;61.29;99631.06;1669110;86;21016;-70
2022/01/22 07:58:59;;;;;;;5.42;2.17;;;;;;;0.75;61.37;99632.38;1669206;85;21049;-70
2022/01/22 08:01:28;;;;;;;4.97;2.17;;;;;;;0.78;61.33;99634.58;1669151;85;21096;-70
2022/01/22 08:04:12;;;;;;;5.45;2.22;;;;;;;0.76;61.16;99666.83;1669230;85;21721;-69
2022/01/22 08:06:43;;;;;;;5.80;1.90;;;;;;;0.70;61.04;99644.34;1668947;85;21469;-69
2022/01/22 08:09:12;;;;;;;4.45;1.98;;;;;;;0.66;61.23;99645.80;1632367;86;21067;-69
2022/01/22 08:11:43;;;;;;;5.72;1.77;;;;;;;0.67;61.54;99653.97;1668743;85;21067;-70
2022/01/22 08:14:10;;;;;;;4.55;2.15;;;;;;;0.70;61.80;99650.91;1668554;84;21056;-69
2022/01/22 08:16:37;;;;;;;4.15;2.08;;;;;;;0.73;62.09;99653.62;1644204;86;21805;-68
2022/01/22 08:19:04;;;;;;;6.83;2.20;;;;;;;0.70;62.21;99660.63;1669116;86;20961;-68
2022/01/22 08:21:31;;;;;;;4.67;1.90;;;;;;;0.68;62.46;99660.83;1669201;86;21584;-69
2022/01/22 08:24:18;;;;;;;5.95;2.40;;;;;;;0.67;62.58;99650.02;1669312;86;21008;-70
2022/01/22 08:26:51;;;;;;;5.22;2.22;;;;;;;0.70;62.56;99667.20;1668403;85;21558;-69
2022/01/22 08:29:19;;;;;;;3.95;2.17;;;;;;;0.73;62.53;99656.77;1669098;86;21124;-70
2022/01/22 08:31:51;;;;;;;4.87;1.90;;;;;;;0.70;62.04;99656.17;1668678;86;21035;-69
2022/01/22 08:36:59;;;;;;;5.67;2.27;;;;;;;0.84;61.66;99661.32;1669275;86;21039;-70
2022/01/22 08:39:26;;;;;;;4.78;2.33;;;;;;;0.85;61.07;99662.92;1669376;86;20969;-69
2022/01/22 08:41:52;;;;;;;5.90;2.42;;;;;;;0.82;60.79;99663.34;1668988;86;22175;-70
2022/01/22 08:44:19;;;;;;;6.10;2.47;;;;;;;0.86;60.69;99664.55;1668692;84;21055;-69
2022/01/22 08:46:46;;;;;;;4.65;2.40;;;;;;;0.85;60.46;99670.80;1669072;85;21024;-69
2022/01/22 08:49:13;;;;;;;5.50;2.50;;;;;;;0.89;60.59;99670.70;1668613;86;21531;-68
2022/01/22 08:51:54;;;;;;;5.72;2.70;;;;;;;0.96;60.38;99673.27;1669215;85;21068;-70
2022/01/22 08:54:20;;;;;;;5.42;2.50;;;;;;;1.01;60.35;99667.63;1644093;86;21044;-69
2022/01/22 08:56:49;;;;;;;5.92;2.72;;;;;;;1.08;60.13;99672.31;1669003;85;21245;-70
2022/01/22 08:59:16;;;;;;;6.40;2.98;;;;;;;1.11;59.78;99677.15;1669066;85;21071;-70
2022/01/22 09:01:48;;;;;;;5.25;2.50;;;;;;;1.13;59.70;99681.69;1669130;85;20981;-69
2022/01/22 09:04:33;;;;;;;5.22;2.65;;;;;;;1.14;59.27;99685.92;1669130;85;21744;-69
2022/01/22 09:07:18;;;;;;;6.53;2.92;;;;;;;1.17;59.28;99686.00;1669106;86;21164;-69
2022/01/22 09:09:48;;;;;;;6.05;2.60;;;;;;;1.25;59.11;99676.53;1652671;86;21001;-69
2022/01/22 09:12:23;;;;;;;6.83;2.62;;;;;;;1.35;59.29;99680.78;1667990;86;20980;-70
2022/01/22 09:14:55;;;;;;;6.85;2.77;;;;;;;1.46;58.82;99672.67;1665062;86;21072;-69
2022/01/22 09:17:23;;;;;;;7.25;3.05;;;;;;;1.57;58.82;99678.52;1668928;85;21049;-69
2022/01/22 09:19:56;;;;;;;6.90;2.60;;;;;;;1.70;58.53;99670.18;1669090;86;21136;-68
2022/01/22 09:22:18;;;;;;;5.60;2.87;;;;;;;1.70;57.70;99680.19;1668553;86;21028;-70
2022/01/22 09:24:46;;;;;;;6.15;2.75;;;;;;;1.75;57.52;99683.50;1668833;86;21024;-70
2022/01/22 09:27:15;;;;;;;5.33;2.95;;;;;;;1.77;57.33;99677.48;1669191;85;21539;-70
2022/01/22 09:29:42;;;;;;;6.37;3.40;;;;;;;1.74;57.21;99697.15;1669140;86;21020;-70
2022/01/22 09:32:10;;;;;;;6.08;2.98;;;;;;;1.74;57.27;99691.09;1669143;86;21575;-70
2022/01/22 09:34:55;;;;;;;5.97;2.80;;;;;;;1.79;57.40;99687.30;1669104;86;21777;-70
2022/01/22 09:37:26;;;;;;;7.05;2.75;;;;;;;1.92;57.43;99683.70;1668368;86;21619;-69
2022/01/22 09:40:12;;;;;;;6.22;3.00;;;;;;;2.06;57.26;99684.61;1665523;85;21056;-69
2022/01/22 09:42:52;;;;;;;6.08;3.62;;;;;;;2.16;56.39;99695.94;1652937;85;21543;-71
2022/01/22 09:45:32;;;;;;;6.40;3.00;;;;;;;2.21;56.42;99703.20;1668989;85;22159;-69
2022/01/22 09:48:12;;;;;;;5.12;2.85;;;;;;;2.31;56.54;99701.63;1668968;85;21587;-70
2022/01/22 09:50:40;;;;;;;6.42;2.90;;;;;;;2.42;55.88;99700.05;1661506;86;21059;-69
2022/01/22 09:53:25;;;;;;;7.53;3.02;;;;;;;2.44;55.37;99694.58;1669256;85;20997;-69
2022/01/22 09:56:06;;;;;;;6.65;3.05;;;;;;;2.43;55.22;99697.70;1667588;86;20953;-70
2022/01/22 09:58:40;;;;;;;5.85;3.10;;;;;;;2.46;55.32;99698.56;1668106;86;21885;-69
2022/01/22 10:01:30;;;;;;;6.10;2.90;;;;;;;2.46;55.05;99707.80;1668699;86;20989;-69
2022/01/22 10:04:01;;;;;;;5.58;2.70;;;;;;;2.40;55.24;99703.93;1681820;83;21542;-70
2022/01/22 10:06:50;;;;;;;6.58;2.70;;;;;;;2.27;54.81;99707.06;1668905;86;21111;-69
2022/01/22 10:09:46;;;;;;;4.80;2.37;;;;;;;2.16;54.71;99704.36;1669114;86;21021;-69
2022/01/22 10:12:16;;;;;;;4.70;2.47;;;;;;;2.02;54.69;99714.27;1668212;84;21011;-70
2022/01/22 10:15:16;;;;;;;6.22;3.02;;;;;;;1.93;54.78;99701.90;1697084;84;21024;-70
2022/01/22 10:17:52;;;;;;;5.17;2.87;;;;;;;1.84;54.96;99713.75;1697471;84;21143;-70
2022/01/22 10:20:29;;;;;;;5.33;2.90;;;;;;;1.84;55.32;99715.06;1678776;84;20992;-70
2022/01/22 10:23:05;;;;;;;5.90;2.77;;;;;;;1.91;55.52;99715.82;1669116;86;21114;-69
2022/01/22 10:25:44;;;;;;;5.50;3.10;;;;;;;1.98;55.67;99717.05;1669095;86;21567;-70
2022/01/22 10:28:16;;;;;;;5.42;2.47;;;;;;;1.99;55.41;99718.66;1669041;85;21060;-69
2022/01/22 10:30:43;;;;;;;6.28;3.05;;;;;;;1.90;54.96;99720.77;1669135;86;21036;-69
2022/01/22 10:36:20;;;;;;;6.37;3.33;;;;;;;1.96;55.28;99713.31;1669140;86;21016;-70
2022/01/22 10:39:10;;;;;;;6.92;3.27;;;;;;;2.02;55.41;99707.68;1669115;85;22266;-71
2022/01/22 10:41:40;;;;;;;7.42;3.30;;;;;;;2.04;55.34;99713.52;1669033;86;21013;-70
2022/01/22 10:44:12;;;;;;;9.05;4.22;;;;;;;2.01;55.42;99708.72;1669011;86;20992;-70
2022/01/22 10:46:51;;;;;;;9.00;5.40;;;;;;;1.91;55.50;99709.23;1669067;86;20997;-70
2022/01/22 10:49:19;;;;;;;5.85;3.02;;;;;;;1.88;55.95;99701.26;1668916;86;21111;-70
2022/01/22 10:52:04;;;;;;;6.55;3.30;;;;;;;1.88;55.80;99703.09;1643916;86;21207;-71
2022/01/22 10:54:33;;;;;;;6.03;2.70;;;;;;;1.83;55.86;99708.20;1668950;86;21084;-71
2022/01/22 10:57:20;;;;;;;6.00;3.10;;;;;;;1.80;56.03;99712.59;1669124;85;21001;-70
2022/01/22 10:59:52;;;;;;;6.53;3.33;;;;;;;1.74;56.26;99715.58;1669141;86;21578;-71
2022/01/22 11:02:33;;;;;;;8.00;3.80;;;;;;;1.70;56.46;99719.68;1668259;85;27725;-70
2022/01/22 11:05:00;;;;;;;5.67;2.90;;;;;;;1.65;56.62;99718.23;1650745;86;21778;-70
2022/01/22 11:07:27;;;;;;;7.97;3.25;;;;;;;1.64;56.79;99720.03;1669090;86;21020;-70
2022/01/22 11:09:53;;;;;;;5.97;3.40;;;;;;;1.60;57.15;99729.40;1668480;85;21079;-70
2022/01/22 11:12:19;;;;;;;6.28;3.60;;;;;;;1.53;57.52;99725.23;1669150;86;21276;-70
2022/01/22 11:14:46;;;;;;;6.87;3.90;;;;;;;1.53;57.77;99722.60;1669152;86;21062;-70
2022/01/22 11:17:14;;;;;;;8.43;3.10;;;;;;;1.58;57.73;99717.47;1668607;85;21424;-69
2022/01/22 11:19:47;;;;;;;7.58;3.20;;;;;;;1.68;56.88;99718.28;1669153;86;21114;-70
2022/01/22 11:22:16;;;;;;;5.97;3.05;;;;;;;1.79;56.41;99712.30;1668572;84;21052;-70
2022/01/22 11:24:50;;;;;;;4.67;2.60;;;;;;;1.97;55.76;99718.86;1669167;85;21057;-70
2022/01/22 11:27:20;;;;;;;6.58;2.85;;;;;;;2.10;54.55;99717.38;1668662;85;21088;-70
2022/01/22 11:29:58;;;;;;;5.97;2.65;;;;;;;2.37;54.42;99720.19;1669767;85;21120;-71
2022/01/22 11:32:35;;;;;;;5.85;2.80;;;;;;;2.61;53.74;99710.55;1666512;84;20985;-70
2022/01/22 11:35:05;;;;;;;4.33;2.52;;;;;;;2.83;53.34;99703.72;1662369;85;21591;-70
2022/01/22 11:37:53;;;;;;;5.97;3.22;;;;;;;3.01;53.14;99699.66;1668036;85;21079;-70
2022/01/22 11:40:23;;;;;;;6.72;3.17;;;;;;;3.15;52.53;99708.67;1663762;84;21051;-70
2022/01/22 11:43:08;;;;;;;8.73;3.27;;;;;;;3.05;53.02;99707.40;1668474;85;21723;-69
2022/01/22 11:45:51;;;;;;;8.53;3.95;;;;;;;2.80;54.84;99739.26;1667294;85;20885;-70
2022/01/22 11:48:26;;;;;;;7.53;4.03;;;;;;;2.56;57.26;99732.30;1668036;85;21084;-70
2022/01/22 11:50:55;;;;;;;6.83;3.40;;;;;;;2.22;59.10;99731.14;1667540;86;21091;-71
2022/01/22 11:53:30;;;;;;;6.08;3.10;;;;;;;2.02;60.31;99734.82;1669184;86;21079;-71
2022/01/22 11:56:23;;;;;;;5.97;3.60;;;;;;;1.94;61.02;99735.62;1668830;85;21487;-69
2022/01/22 11:59:04;;;;;;;8.10;3.90;;;;;;;1.79;61.52;99732.05;1668129;85;21154;-70
2022/01/22 12:01:56;;;;;;;6.17;3.70;;;;;;;1.73;62.02;99742.94;1668936;85;21535;-71
2022/01/22 12:04:39;;;;;;;7.03;3.80;;;;;;;1.73;62.22;99738.98;1675780;85;21602;-71
2022/01/22 12:07:10;;;;;;;6.20;3.55;;;;;;;1.75;62.00;99745.37;1668248;85;21016;-71
2022/01/22 12:15:45;;;;;;;7.15;3.50;;;;;;;2.00;59.58;99742.13;1678539;84;21036;-70
2022/01/22 12:18:15;;;;;;;6.35;3.47;;;;;;;2.03;59.41;99749.59;1673718;85;21016;-71
2022/01/22 12:23:26;;;;;;;6.45;3.90;;;;;;;1.86;59.50;99773.59;1666037;85;21213;-70
2022/01/22 12:25:52;;;;;;;7.33;4.20;;;;;;;1.76;60.15;99761.45;1662581;86;21087;-71
2022/01/22 12:28:39;;;;;;;8.50;4.37;;;;;;;1.74;60.58;99771.38;1669251;86;21004;-71
2022/01/22 12:31:10;;;;;;;8.38;4.90;;;;;;;1.71;60.97;99777.08;1668728;85;20988;-70
2022/01/22 12:33:43;;;;;;;7.80;4.33;;;;;;;1.67;60.98;99781.17;1669128;86;20977;-69
2022/01/22 12:36:17;;;;;;;8.40;4.45;;;;;;;1.66;61.15;99777.74;1669457;86;21150;-70
2022/01/22 12:38:48;;;;;;;8.20;4.70;;;;;;;1.65;61.39;99785.36;1668617;86;20980;-70
2022/01/22 12:44:35;;;;;;;10.20;5.78;;;;;;;1.60;61.74;99785.19;1668512;85;21110;-70
2022/01/22 12:47:10;;;;;;;8.80;5.42;;;;;;;1.64;61.94;99786.36;1668434;84;21123;-70
2022/01/22 12:49:37;;;;;;;8.70;4.55;;;;;;;1.69;62.13;99788.36;1669066;86;21153;-70
2022/01/22 12:52:13;;;;;;;9.38;5.90;;;;;;;1.72;61.97;99790.04;1668979;85;21051;-70
2022/01/22 12:54:44;;;;;;;8.60;3.92;;;;;;;1.73;61.81;99801.38;1669100;85;21048;-70
2022/01/22 12:57:16;;;;;;;7.55;4.30;;;;;;;1.69;61.60;99801.52;1669381;85;21069;-71
2022/01/22 12:59:51;;;;;;;;;;;;;;;1.62;61.76;99802.89;1671741;86;21558;-70
2022/01/22 13:02:18;;;;;;;6.85;3.05;;;;;;;1.63;61.88;99818.97;1669366;86;21077;-70
2022/01/22 13:05:00;;;;;;;6.85;3.00;;;;;;;1.66;61.43;99821.69;1668916;85;21131;-70
2022/01/22 13:07:37;;;;;;;6.08;2.92;;;;;;;1.69;60.96;99827.33;1668081;86;21076;-70
2022/01/22 13:10:31;;;;;;;2.33;1.10;;;;;;;1.70;60.70;99823.66;1649546;86;21016;-70
2022/01/22 13:12:56;;;;;;;2.70;1.30;;;;;;;1.54;61.36;99851.33;1669479;85;21120;-71
2022/01/22 13:15:22;;;;;;;3.47;1.70;;;;;;;1.29;62.18;99853.16;1669116;86;22266;-71
2022/01/22 13:17:59;;;;;;;2.05;1.20;;;;;;;1.05;63.12;99854.72;1669292;85;21028;-71
2022/01/22 13:20:29;;;;;;;2.42;0.98;;;;;;;0.86;63.89;99862.52;1668943;86;21055;-69
2022/01/22 13:22:58;;;;;;;1.72;0.80;;;;;;;0.76;64.48;99860.02;1669230;85;21041;-70
2022/01/22 13:25:24;;;;;;;2.58;1.00;;;;;;;0.65;65.14;99859.67;1669044;85;21036;-70